Time;durP1;ratioP1;P1;durP2;ratioP2;P2;SDS_P1;SDS_P2;PMS_P1;PMS_P2;Temp;Humidity;BMP_temperature;BMP_pressure;BME280_temperature;BME280_humidity;BME280_pressure;Samples;Min_cycle;Max_cycle;Signal;HPM_P1;HPM_P2
2022/09/27 00:02:07;;;;;;;2.90;0.80;;;10.80;99.90;;;;;;5039024;28;20133;-88
2022/09/27 00:04:33;;;;;;;1.90;0.95;;;10.70;99.90;;;;;;5038948;28;20126;-88
2022/09/27 00:06:59;;;;;;;2.70;1.05;;;11.00;99.90;;;;;;5039210;28;20475;-80
2022/09/27 00:09:25;;;;;;;2.05;1.10;;;;;;;;;;5038766;28;20032;-80
2022/09/27 00:11:50;;;;;;;2.78;0.90;;;10.70;99.90;;;;;;5055106;28;20052;-80
2022/09/27 00:14:17;;;;;;;1.00;0.90;;;10.70;99.90;;;;;;5038521;28;20067;-81
2022/09/27 00:16:43;;;;;;;1.80;0.93;;;;;;;;;;5054296;28;20083;-81
2022/09/27 00:19:15;;;;;;;3.67;0.93;;;10.90;99.90;;;;;;5055356;28;20404;-79
2022/09/27 00:21:42;;;;;;;3.70;1.00;;;;;;;;;;5055321;28;20045;-80
2022/09/27 00:24:17;;;;;;;7.05;1.00;;;10.80;99.90;;;;;;5038502;28;20054;-80
2022/09/27 00:26:43;;;;;;;5.70;1.00;;;;;;;;;;5038366;28;20124;-80
2022/09/27 00:29:09;;;;;;;2.25;0.60;;;10.80;99.90;;;;;;5072609;28;20052;-81
2022/09/27 00:31:36;;;;;;;2.00;0.82;;;;;;;;;;5038253;28;20083;-80
2022/09/27 00:34:03;;;;;;;4.72;1.13;;;10.70;99.90;;;;;;5038214;28;20056;-80
2022/09/27 00:36:30;;;;;;;5.20;0.98;;;10.70;99.90;;;;;;5022056;28;20136;-81
2022/09/27 00:38:58;;;;;;;2.97;0.93;;;10.80;99.90;;;;;;5038125;28;20106;-81
2022/09/27 00:41:32;;;;;;;1.88;1.02;;;;;;;;;;5055031;28;20055;-80
2022/09/27 00:44:00;;;;;;;;;;;10.60;99.90;;;;;;5038514;28;20044;-80
2022/09/27 00:46:26;;;;;;;6.18;0.80;;;;;;;;;;5037929;28;19996;-80
2022/09/27 00:49:15;;;;;;;5.18;1.25;;;10.60;99.90;;;;;;5054636;28;20053;-81
2022/09/27 00:51:44;;;;;;;7.45;1.00;;;10.50;99.90;;;;;;5038299;28;20127;-89
2022/09/27 00:54:13;;;;;;;4.28;0.90;;;10.60;99.90;;;;;;5072294;28;20643;-88
2022/09/27 00:56:40;;;;;;;3.72;0.98;;;;;;;;;;5072300;28;20041;-87
2022/09/27 00:59:16;;;;;;;1.77;0.93;;;10.50;99.90;;;;;;5037711;28;20127;-89
2022/09/27 01:01:42;;;;;;;5.18;1.17;;;10.60;99.90;;;;;;5038155;28;20044;-89
2022/09/27 01:04:13;;;;;;;5.78;0.93;;;;;;;;;;5054579;28;20507;-88
2022/09/27 01:06:39;;;;;;;1.23;1.13;;;;;;;;;;5054675;28;20066;-89
2022/09/27 01:09:08;;;;;;;3.75;1.00;;;10.50;99.90;;;;;;5037908;28;20055;-79
2022/09/27 01:11:37;;;;;;;3.40;0.80;;;10.50;99.90;;;;;;5072033;28;20052;-89
2022/09/27 01:14:10;;;;;;;2.45;0.88;;;;;;;;;;5054139;28;20123;-88
2022/09/27 01:16:56;;;;;;;6.03;0.80;;;10.50;99.90;;;;;;5037430;28;20040;-87
2022/09/27 01:20:18;;;;;;;7.25;1.50;;;10.30;99.90;;;;;;5036922;28;20061;-89
2022/09/27 01:22:56;;;;;;;2.22;1.00;;;;;;;;;;4955172;28;20053;-90
2022/09/27 01:25:22;;;;;;;4.30;1.02;;;;;;;;;;4955061;28;20055;-88
2022/09/27 01:27:57;;;;;;;6.70;1.20;;;;;;;;;;4939017;28;20137;-89
2022/09/27 01:30:26;;;;;;;2.50;1.17;;;;;;;;;;4938876;28;20130;-83
2022/09/27 01:33:11;;;;;;;1.85;0.98;;;10.40;99.90;;;;;;4938843;28;20078;-89
2022/09/27 01:36:10;;;;;;;2.25;0.93;;;10.50;99.90;;;;;;4954627;28;20094;-80
2022/09/27 01:39:04;;;;;;;0.73;0.60;;;10.50;99.90;;;;;;4954868;28;20050;-81
2022/09/27 01:41:36;;;;;;;2.83;0.90;;;10.50;99.90;;;;;;4938975;28;20049;-80
2022/09/27 01:44:09;;;;;;;3.38;1.05;;;;;;;;;;4954705;28;20054;-79
2022/09/27 01:46:49;;;;;;;2.33;0.67;;;10.30;99.90;;;;;;4970751;28;20077;-80
2022/09/27 01:49:21;;;;;;;4.50;0.80;;;11.60;99.90;;;;;;4970907;28;20130;-80
2022/09/27 01:51:57;;;;;;;3.03;0.80;;;10.50;99.90;;;;;;4954844;28;20059;-81
2022/09/27 01:54:32;;;;;;;1.92;1.00;;;10.40;99.90;;;;;;5016927;28;20056;-80
2022/09/27 01:57:00;;;;;;;2.22;0.77;;;10.40;99.90;;;;;;5033680;28;20049;-81
2022/09/27 01:59:33;;;;;;;3.35;0.73;;;10.30;99.90;;;;;;5033756;28;20045;-81
2022/09/27 02:02:05;;;;;;;2.58;0.88;;;10.30;99.90;;;;;;5033406;28;20139;-81
2022/09/27 02:04:32;;;;;;;3.88;0.73;;;10.30;99.90;;;;;;5033646;28;20049;-81
2022/09/27 02:07:02;;;;;;;3.47;0.82;;;;;;;;;;5033934;28;20037;-81
2022/09/27 02:09:37;;;;;;;2.25;0.93;;;10.30;99.90;;;;;;5033854;28;20049;-81
2022/09/27 02:12:07;;;;;;;3.92;1.20;;;10.40;99.90;;;;;;5033866;28;20037;-80
2022/09/27 02:14:40;;;;;;;0.70;0.70;;;10.20;99.90;;;;;;5033610;28;20048;-80
2022/09/27 02:17:36;;;;;;;1.15;0.75;;;10.30;99.90;;;;;;5033641;28;20080;-90
2022/09/27 02:20:40;;;;;;;1.52;0.80;;;10.20;99.90;;;;;;5017108;28;20502;-83
2022/09/27 02:23:25;;;;;;;1.25;0.88;;;;;;;;;;4957694;28;20601;-85
2022/09/27 02:26:08;;;;;;;3.30;0.90;;;;;;;;;;4973950;28;20055;-88
2022/09/27 02:28:36;;;;;;;3.13;0.80;;;;;;;;;;4974235;28;20082;-85
2022/09/27 02:31:02;;;;;;;7.50;1.50;;;;;;;;;;4973964;28;20526;-89
2022/09/27 02:33:34;;;;;;;2.95;1.27;;;10.20;99.90;;;;;;4973547;28;20158;-87
2022/09/27 02:36:00;;;;;;;3.53;1.08;;;;;;;;;;4973516;28;20597;-89
2022/09/27 02:38:27;;;;;;;7.35;1.25;;;;;;;;;;4973612;28;20073;-89
2022/09/27 02:40:53;;;;;;;2.70;0.77;;;;;;;;;;4975743;28;20499;-88
2022/09/27 02:43:21;;;;;;;4.97;1.70;;;10.30;99.90;;;;;;4993658;28;20050;-86
2022/09/27 02:45:47;;;;;;;8.40;1.35;;;;;;;;;;4977595;28;20093;-89
2022/09/27 02:48:26;;;;;;;2.67;0.93;;;10.40;99.90;;;;;;4977785;28;20129;-82
2022/09/27 02:51:11;;;;;;;5.50;1.75;;;;;;;;;;4977663;28;20081;-84
2022/09/27 02:53:52;;;;;;;3.38;0.77;;;10.10;99.90;;;;;;4977820;28;20066;-89
2022/09/27 02:56:26;;;;;;;3.63;0.95;;;10.10;99.90;;;;;;4977785;28;20141;-86
2022/09/27 02:59:11;;;;;;;1.15;0.70;;;10.10;99.90;;;;;;4992277;28;20049;-86
2022/09/27 03:01:54;;;;;;;4.60;1.10;;;10.30;99.90;;;;;;5020361;28;20450;-81
2022/09/27 03:04:25;;;;;;;3.60;0.73;;;;;;;;;;5036483;28;20102;-82
2022/09/27 03:06:52;;;;;;;1.02;0.70;;;;;;;;;;5036415;28;20135;-81
2022/09/27 03:09:23;;;;;;;1.02;0.60;;;10.00;99.90;;;;;;5019914;28;20075;-81
2022/09/27 03:11:49;;;;;;;2.55;0.70;;;;;;;;;;5036858;28;20041;-81
2022/09/27 03:14:16;;;;;;;4.28;0.75;;;;;;;;;;5020012;28;20099;-81
2022/09/27 03:16:42;;;;;;;4.05;1.00;;;;;;;;;;5036638;28;20600;-82
2022/09/27 03:19:09;;;;;;;9.98;1.20;;;;;;;;;;5019610;28;20131;-81
2022/09/27 03:21:35;;;;;;;1.80;0.95;;;;;;;;;;5020270;28;20130;-81
2022/09/27 03:24:01;;;;;;;4.57;1.10;;;;;;;;;;5020148;28;20044;-82
2022/09/27 03:26:27;;;;;;;5.45;1.38;;;;;;;;;;5036563;28;20049;-82
2022/09/27 03:28:53;;;;;;;2.42;0.90;;;;;;;;;;5019733;28;20047;-81
2022/09/27 03:31:20;;;;;;;10.15;1.17;;;;;;;;;;5036196;28;20049;-79
2022/09/27 03:33:46;;;;;;;5.22;1.77;;;;;;;;;;5040155;28;20056;-80
2022/09/27 03:36:12;;;;;;;1.05;0.88;;;;;;;;;;5066598;28;20045;-80
2022/09/27 03:38:39;;;;;;;2.40;1.10;;;;;;;;;;5056105;28;20135;-79
2022/09/27 03:41:05;;;;;;;0.90;0.85;;;;;;;;;;5055952;28;20074;-80
2022/09/27 03:43:31;;;;;;;2.88;0.90;;;;;;;;;;5039408;28;20098;-81
2022/09/27 03:45:57;;;;;;;6.15;1.00;;;;;;;;;;5039437;28;20051;-80
2022/09/27 03:48:24;;;;;;;1.70;1.10;;;;;;;;;;5056045;28;20546;-80
2022/09/27 03:50:50;;;;;;;3.95;1.20;;;;;;;;;;5055473;28;20082;-80
2022/09/27 03:53:16;;;;;;;7.38;1.30;;;;;;;;;;5038160;28;20056;-81
2022/09/27 03:55:44;;;;;;;2.83;1.00;;;;;;;;;;5055708;28;20459;-80
2022/09/27 03:58:11;;;;;;;3.50;0.77;;;;;;;;;;5039085;28;20040;-80
2022/09/27 04:00:37;;;;;;;6.28;1.17;;;;;;;;;;5039062;28;20040;-80
2022/09/27 04:03:04;;;;;;;4.43;1.25;;;;;;;;;;5039030;28;20079;-80
2022/09/27 04:05:30;;;;;;;1.52;0.93;;;;;;;;;;5038684;28;20504;-80
2022/09/27 04:07:56;;;;;;;5.15;0.80;;;;;;;;;;5055524;28;20102;-80
2022/09/27 04:10:22;;;;;;;0.73;0.73;;;;;;;;;;5055726;28;20481;-80
2022/09/27 04:12:48;;;;;;;2.13;0.80;;;;;;;;;;5055872;28;20044;-81
2022/09/27 04:15:14;;;;;;;7.72;1.10;;;;;;;;;;5038708;28;20045;-81
2022/09/27 04:17:41;;;;;;;2.33;0.82;;;9.90;99.90;;;;;;5055647;28;20044;-91
2022/09/27 04:20:08;;;;;;;3.83;0.95;;;;;;;;;;5039034;28;20040;-91
2022/09/27 04:22:34;;;;;;;2.08;0.77;;;;;;;;;;5038833;28;20048;-89
2022/09/27 04:25:00;;;;;;;2.85;0.82;;;;;;;;;;5038917;28;20112;-91
2022/09/27 04:27:26;;;;;;;3.75;1.60;;;;;;;;;;5038717;28;20052;-87
2022/09/27 04:29:52;;;;;;;3.22;0.70;;;;;;;;;;5055273;28;20091;-90
2022/09/27 04:32:18;;;;;;;0.75;0.63;;;;;;;;;;5038655;28;20088;-88
2022/09/27 04:37:28;;;;;;;5.10;1.00;;;;;;;;;;5054814;28;20131;-88
2022/09/27 04:39:54;;;;;;;3.58;1.08;;;;;;;;;;5038747;28;20044;-92
2022/09/27 04:42:20;;;;;;;2.95;0.73;;;;;;;;;;5054789;28;20044;-89
2022/09/27 04:44:46;;;;;;;4.30;1.25;;;;;;;;;;5055412;28;20133;-88
2022/09/27 04:47:13;;;;;;;1.52;0.80;;;;;;;;;;5055183;28;20055;-88
2022/09/27 04:49:39;;;;;;;2.97;0.88;;;;;;;;;;5038770;28;20032;-83
2022/09/27 04:52:05;;;;;;;4.20;0.88;;;;;;;;;;5037968;28;20044;-85
2022/09/27 04:54:31;;;;;;;1.45;0.85;;;;;;;;;;5038344;28;20489;-84
2022/09/27 04:56:57;;;;;;;3.75;0.82;;;;;;;;;;5054741;28;20083;-88
2022/09/27 04:59:26;;;;;;;1.40;0.95;;;;;;;;;;5055515;28;20048;-83
2022/09/27 05:01:52;;;;;;;5.50;1.60;;;;;;;;;;5054786;28;20070;-82
2022/09/27 05:04:20;;;;;;;10.45;1.20;;;;;;;;;;5054172;28;20401;-81
2022/09/27 05:06:46;;;;;;;2.60;0.80;;;;;;;;;;5054313;28;20049;-82
2022/09/27 05:09:12;;;;;;;3.15;1.23;;;;;;;;;;5054503;28;20045;-82
2022/09/27 05:11:38;;;;;;;6.55;1.05;;;;;;;;;;5072595;28;20052;-82
2022/09/27 05:14:05;;;;;;;2.78;0.90;;;;;;;;;;5037600;28;20041;-83
2022/09/27 05:16:33;;;;;;;1.40;1.08;;;;;;;;;;5055072;28;20048;-83
2022/09/27 05:18:59;;;;;;;3.45;1.55;;;;;;;;;;5054845;28;20443;-82
2022/09/27 05:21:25;;;;;;;7.80;1.15;;;;;;;;;;5054494;28;20500;-82
2022/09/27 05:23:51;;;;;;;1.60;0.90;;;;;;;;;;5071181;28;20087;-82
2022/09/27 05:26:17;;;;;;;2.08;0.82;;;;;;;;;;5053871;28;20049;-81
2022/09/27 05:28:46;;;;;;;5.50;0.90;;;;;;;;;;5071984;28;20044;-81
2022/09/27 05:31:13;;;;;;;3.40;0.73;;;9.60;99.90;;;;;;5053809;28;20044;-82
2022/09/27 05:33:40;;;;;;;5.80;1.33;;;9.80;99.90;;;;;;5053715;28;20102;-81
2022/09/27 05:36:06;;;;;;;5.40;1.10;;;;;;;;;;5054032;28;20049;-81
2022/09/27 05:38:34;;;;;;;6.00;1.40;;;;;;;;;;5053778;28;20041;-81
2022/09/27 05:41:02;;;;;;;2.72;0.90;;;;;;;;;;5070815;28;20048;-82
2022/09/27 05:43:28;;;;;;;5.43;1.55;;;;;;;;;;5054275;28;20063;-81
2022/09/27 05:45:54;;;;;;;5.57;1.33;;;;;;;;;;5053760;28;20401;-81
2022/09/27 05:48:21;;;;;;;2.03;0.82;;;;;;;;;;5037021;28;20525;-80
2022/09/27 05:50:47;;;;;;;0.80;0.57;;;;;;;;;;5036972;28;20567;-80
2022/09/27 05:53:13;;;;;;;4.03;1.25;;;;;;;;;;5036784;28;20131;-81
2022/09/27 05:55:39;;;;;;;4.68;1.30;;;;;;;;;;5053172;28;20041;-81
2022/09/27 05:58:07;;;;;;;2.30;1.52;;;9.80;99.90;;;;;;5036744;28;20040;-81
2022/09/27 06:00:33;;;;;;;5.03;0.80;;;;;;;;;;5036899;28;20041;-81
2022/09/27 06:03:00;;;;;;;3.40;1.08;;;;;;;;;;5036864;28;20060;-81
2022/09/27 06:05:29;;;;;;;3.08;1.13;;;9.70;99.90;;;;;;5037132;28;20051;-81
2022/09/27 06:08:00;;;;;;;3.60;1.13;;;9.90;99.90;;;;;;5036611;28;20044;-81
2022/09/27 06:10:26;;;;;;;1.70;0.80;;;;;;;;;;5036941;28;20178;-82
2022/09/27 06:12:53;;;;;;;1.40;0.98;;;;;;;;;;5053455;28;20048;-81
2022/09/27 06:15:19;;;;;;;4.97;1.10;;;;;;;;;;5054121;28;20162;-82
2022/09/27 06:17:45;;;;;;;5.30;1.30;;;;;;;;;;5057676;28;20052;-82
2022/09/27 06:20:12;;;;;;;3.47;1.33;;;;;;;;;;5057598;28;20118;-81
2022/09/27 06:22:38;;;;;;;5.32;1.50;;;;;;;;;;5041072;28;20052;-81
2022/09/27 06:25:04;;;;;;;4.45;1.98;;;;;;;;;;5057533;28;20083;-81
2022/09/27 06:27:31;;;;;;;3.53;1.40;;;;;;;;;;5049871;28;20044;-81
2022/09/27 06:29:57;;;;;;;6.35;1.60;;;;;;;;;;5045096;28;20048;-82
2022/09/27 06:32:23;;;;;;;3.10;1.50;;;;;;;;;;5057285;28;20048;-81
2022/09/27 06:34:49;;;;;;;5.10;2.10;;;;;;;;;;5056952;28;20131;-81
2022/09/27 06:37:15;;;;;;;8.68;2.17;;;;;;;;;;5057180;28;20459;-81
2022/09/27 06:39:41;;;;;;;5.20;1.67;;;;;;;;;;5057091;28;20048;-81
2022/09/27 06:42:09;;;;;;;5.75;1.73;;;;;;;;;;5040419;28;20063;-81
2022/09/27 06:44:36;;;;;;;2.80;1.40;;;;;;;;;;5075162;28;20041;-81
2022/09/27 06:47:02;;;;;;;4.03;1.40;;;;;;;;;;5075019;28;20044;-80
2022/09/27 06:49:30;;;;;;;3.10;1.00;;;;;;;;;;5073866;28;20127;-82
2022/09/27 06:51:56;;;;;;;8.00;1.90;;;;;;;;;;5074715;28;20056;-81
2022/09/27 06:54:22;;;;;;;4.13;1.13;;;;;;;;;;5068863;28;20049;-82
2022/09/27 06:56:48;;;;;;;3.53;1.00;;;;;;;;;;5039727;28;20048;-81
2022/09/27 07:01:59;;;;;;;3.20;0.98;;;;;;;;;;5056647;28;20079;-81
2022/09/27 07:04:25;;;;;;;2.25;1.15;;;;;;;;;;5039808;28;20048;-81
2022/09/27 07:06:52;;;;;;;1.90;1.30;;;;;;;;;;5056637;28;20135;-81
2022/09/27 07:09:18;;;;;;;3.78;1.35;;;;;;;;;;5056690;28;20052;-82
2022/09/27 07:11:44;;;;;;;8.35;1.75;;;;;;;;;;5056220;28;20048;-81
2022/09/27 07:14:11;;;;;;;1.95;1.10;;;;;;;;;;5056822;28;20037;-80
2022/09/27 07:16:37;;;;;;;2.92;1.30;;;;;;;;;;5056779;28;20050;-82
2022/09/27 07:19:06;;;;;;;2.42;0.88;;;;;;;;;;5039475;28;20048;-82
2022/09/27 07:21:32;;;;;;;4.72;1.63;;;;;;;;;;5041084;28;20040;-86
2022/09/27 07:23:58;;;;;;;1.13;0.98;;;;;;;;;;5041210;28;20408;-90
2022/09/27 07:26:24;;;;;;;3.65;1.05;;;;;;;;;;5040749;28;20040;-92
2022/09/27 07:28:52;;;;;;;1.65;1.17;;;;;;;;;;5057433;28;20086;-96
2022/09/27 07:31:18;;;;;;;1.48;1.00;;;;;;;;;;5057611;28;20055;-95
2022/09/27 07:33:44;;;;;;;3.60;1.42;;;;;;;;;;5056999;28;20139;-91
2022/09/27 07:36:11;;;;;;;3.70;1.88;;;10.00;99.90;;;;;;5067018;28;20052;-92
2022/09/27 07:38:37;;;;;;;4.63;1.58;;;;;;;;;;5072923;28;20056;-90
2022/09/27 07:41:07;;;;;;;3.65;1.30;;;10.10;99.90;;;;;;5058719;28;20037;-86
2022/09/27 07:43:33;;;;;;;1.80;1.17;;;;;;;;;;5057122;28;20080;-94
2022/09/27 07:45:59;;;;;;;2.47;1.30;;;;;;;;;;5057908;28;20041;-95
2022/09/27 07:48:25;;;;;;;3.30;1.23;;;;;;;;;;5040482;28;20576;-90
2022/09/27 07:50:52;;;;;;;1.52;1.00;;;;;;;;;;5057377;28;20048;-95
2022/09/27 07:53:18;;;;;;;2.13;1.10;;;;;;;;;;5040567;28;20056;-93
2022/09/27 07:55:49;;;;;;;2.38;0.98;;;;;;;;;;5040439;28;20048;-93
2022/09/27 07:58:15;;;;;;;5.13;1.25;;;;;;;;;;5040333;28;20127;-94
2022/09/27 08:00:41;;;;;;;3.15;1.27;;;;;;;;;;5057106;28;20119;-90
2022/09/27 08:03:10;;;;;;;2.38;1.02;;;10.40;99.90;;;;;;5040338;28;20075;-89
2022/09/27 08:05:36;;;;;;;5.40;1.25;;;;;;;;;;5038948;28;20057;-81
2022/09/27 08:08:03;;;;;;;3.88;1.08;;;10.60;99.90;;;;;;5055678;28;20040;-81
2022/09/27 08:10:30;;;;;;;2.50;1.13;;;;;;;;;;5055524;28;20055;-81
2022/09/27 08:12:57;;;;;;;2.60;1.30;;;;;;;;;;5047402;28;20508;-82
2022/09/27 08:15:23;;;;;;;1.80;1.10;;;;;;;;;;5038571;28;20044;-82
2022/09/27 08:17:49;;;;;;;2.58;0.75;;;;;;;;;;5055135;28;20063;-81
2022/09/27 08:20:16;;;;;;;5.90;1.10;;;;;;;;;;5038562;28;20131;-82
2022/09/27 08:22:42;;;;;;;4.65;1.10;;;;;;;;;;5038442;28;20102;-83
2022/09/27 08:25:09;;;;;;;2.63;1.00;;;;;;;;;;5055019;28;20036;-82
2022/09/27 08:27:35;;;;;;;1.42;1.02;;;;;;;;;;5038596;28;20078;-82
2022/09/27 08:30:02;;;;;;;2.67;0.90;;;;;;;;;;5055138;28;20093;-82
2022/09/27 08:32:29;;;;;;;1.40;0.80;;;;;;;;;;5039029;28;20049;-82
2022/09/27 08:34:55;;;;;;;2.50;0.77;;;;;;;;;;5054664;28;20056;-82
2022/09/27 08:37:22;;;;;;;3.20;1.02;;;;;;;;;;5065073;28;20048;-82
2022/09/27 08:39:48;;;;;;;3.83;0.73;;;;;;;;;;5054933;28;20052;-82
2022/09/27 08:42:42;;;;;;;2.00;0.70;;;10.80;99.90;;;;;;5055079;28;20378;-82
2022/09/27 08:45:14;;;;;;;2.37;1.00;;;10.80;99.90;;;;;;5037969;28;20056;-82
2022/09/27 08:47:44;;;;;;;2.95;0.80;;;10.80;99.90;;;;;;5055107;28;20340;-82
2022/09/27 08:50:10;;;;;;;1.70;1.60;;;;;;;;;;5055255;28;20443;-82
2022/09/27 08:52:42;;;;;;;2.33;0.82;;;;;;;;;;5038212;28;20477;-82
2022/09/27 08:55:36;;;;;;;2.78;0.90;;;11.10;99.90;;;;;;5038414;28;20052;-81
2022/09/27 08:58:04;;;;;;;2.40;0.73;;;;;;;;;;5035289;28;20092;-81
2022/09/27 09:00:30;;;;;;;1.48;0.88;;;;;;;;;;5054985;28;20090;-82
2022/09/27 09:02:57;;;;;;;2.28;0.90;;;;;;;;;;5030027;28;20040;-82
2022/09/27 09:05:30;;;;;;;0.85;0.82;;;11.30;99.90;;;;;;5038162;28;20458;-81
2022/09/27 09:08:15;;;;;;;2.23;0.90;;;;;;;;;;5054547;28;20452;-82
2022/09/27 09:13:57;;;;;;;5.53;0.82;;;11.50;99.90;;;;;;5054415;28;20047;-83
2022/09/27 09:16:27;;;;;;;0.50;0.50;;;;;;;;;;5053763;28;20496;-82
2022/09/27 09:19:17;;;;;;;1.85;0.65;;;11.20;99.90;;;;;;5037646;28;20044;-81
2022/09/27 09:21:58;;;;;;;0.50;0.50;;;11.10;99.90;;;;;;5054131;28;20095;-82
2022/09/27 09:24:42;;;;;;;1.98;0.50;;;;;;;;;;5054371;28;20459;-81
2022/09/27 09:27:15;;;;;;;0.63;0.50;;;;;;;;;;5037378;28;20385;-82
2022/09/27 09:30:02;;;;;;;0.70;0.65;;;;;;;;;;5037613;28;20040;-82
2022/09/27 09:32:38;;;;;;;2.47;1.35;;;;;;;;;;5037568;28;20052;-82
2022/09/27 09:35:11;;;;;;;1.55;0.70;;;11.10;99.90;;;;;;5053785;28;20494;-82
2022/09/27 09:37:48;;;;;;;1.37;0.60;;;;;;;;;;5053880;28;20056;-82
2022/09/27 09:40:29;;;;;;;2.75;0.73;;;11.10;99.90;;;;;;5054151;28;20063;-82
2022/09/27 09:43:12;;;;;;;1.38;0.50;;;11.10;99.90;;;;;;5053983;28;20125;-82
2022/09/27 09:45:44;;;;;;;2.28;0.50;;;11.20;99.90;;;;;;5053788;28;20050;-82
2022/09/27 09:48:44;;;;;;;5.15;0.70;;;11.00;99.90;;;;;;5053713;28;20055;-82
2022/09/27 09:51:21;;;;;;;3.40;0.57;;;11.20;99.90;;;;;;5053958;28;20515;-81
2022/09/27 09:54:26;;;;;;;0.73;0.45;;;;;;;;;;5053691;28;20036;-81
2022/09/27 09:57:10;;;;;;;3.58;0.70;;;;;;;;;;4974265;28;20214;-82
2022/09/27 09:59:57;;;;;;;;;;;11.40;99.90;;;;;;4960976;28;20109;-89
2022/09/27 10:02:33;;;;;;;1.55;0.57;;;;;;;;;;4960295;28;20044;-88
2022/09/27 10:05:01;;;;;;;1.95;0.73;;;11.30;99.90;;;;;;4976095;28;20051;-91
2022/09/27 10:07:28;;;;;;;2.63;0.68;;;11.50;99.90;;;;;;4976328;28;20152;-90
2022/09/27 10:09:58;;;;;;;1.05;0.60;;;11.50;99.90;;;;;;4976351;28;20050;-89
2022/09/27 10:12:25;;;;;;;1.45;0.60;;;11.50;99.90;;;;;;4976497;28;20113;-91
2022/09/27 10:14:52;;;;;;;1.77;1.00;;;11.50;99.90;;;;;;4959980;28;20061;-85
2022/09/27 10:17:20;;;;;;;2.28;0.60;;;;;;;;;;4959876;28;20050;-91
2022/09/27 10:19:53;;;;;;;4.53;0.75;;;;;;;;;;4958883;28;20491;-90
2022/09/27 10:22:21;;;;;;;4.28;0.63;;;;;;;;;;4976443;28;20051;-90
2022/09/27 10:24:55;;;;;;;2.30;0.40;;;11.40;99.90;;;;;;4978413;28;20145;-95
2022/09/27 10:27:22;;;;;;;0.47;0.47;;;11.10;99.90;;;;;;4995556;28;20056;-96
2022/09/27 10:29:56;;;;;;;0.40;0.40;;;11.10;99.90;;;;;;5060779;28;20041;-91
2022/09/27 10:32:26;;;;;;;;;;;10.80;99.90;;;;;;5057610;28;20060;-90
2022/09/27 10:34:52;;;;;;;0.88;0.88;;;;;;;;;;5059986;28;19928;-88
2022/09/27 10:37:21;;;;;;;4.05;0.70;;;;;;;;;;5061161;28;20497;-89
2022/09/27 10:39:50;;;;;;;4.88;0.55;;;;;;;;;;5042312;28;20068;-86
2022/09/27 10:42:19;;;;;;;0.73;0.40;;;;;;;;;;5066509;28;20056;-80
2022/09/27 10:44:45;;;;;;;2.40;0.50;;;;;;;;;;5072176;28;20051;-84
2022/09/27 10:47:18;;;;;;;1.27;0.47;;;;;;;;;;5071013;28;20052;-87
2022/09/27 10:49:44;;;;;;;1.38;0.70;;;;;;;;;;5073919;28;20037;-81
2022/09/27 10:52:13;;;;;;;2.00;0.73;;;;;;;;;;5075595;28;20056;-81
2022/09/27 10:54:40;;;;;;;0.90;0.50;;;;;;;;;;5075153;28;20056;-80
2022/09/27 10:57:15;;;;;;;0.80;0.50;;;;;;;;;;5059228;28;20028;-80
2022/09/27 10:59:44;;;;;;;1.95;0.77;;;;;;;;;;5060111;28;20048;-82
2022/09/27 11:02:30;;;;;;;1.00;0.60;;;;;;;;;;5055560;28;20048;-83
2022/09/27 11:05:10;;;;;;;0.50;0.50;;;;;;;;;;5056956;28;20452;-83
2022/09/27 11:07:36;;;;;;;5.30;0.57;;;;;;;;;;5040223;28;20392;-83
2022/09/27 11:10:22;;;;;;;2.20;0.60;;;10.60;99.90;;;;;;5056640;28;20484;-82
2022/09/27 11:13:05;;;;;;;1.65;1.13;;;10.80;99.90;;;;;;5039908;28;20045;-83
2022/09/27 11:15:56;;;;;;;1.10;0.60;;;10.90;99.90;;;;;;5056755;28;20084;-83
2022/09/27 11:18:25;;;;;;;4.63;0.90;;;;;;;;;;5031655;28;20109;-81
2022/09/27 11:20:56;;;;;;;1.77;0.75;;;;;;;;;;5056155;28;20052;-83
2022/09/27 11:23:22;;;;;;;2.83;0.57;;;;;;;;;;5056156;28;20632;-82
2022/09/27 11:25:58;;;;;;;0.60;0.60;;;;;;;;;;5039946;28;20160;-83
2022/09/27 11:28:30;;;;;;;0.73;0.50;;;;;;;;;;5056272;28;20044;-81
2022/09/27 11:31:30;;;;;;;2.13;0.90;;;11.60;99.90;;;;;;5056475;28;20072;-83
2022/09/27 11:34:14;;;;;;;1.52;0.65;;;11.90;99.90;;;;;;5039380;28;20512;-83
2022/09/27 11:36:52;;;;;;;3.15;1.83;;;11.70;99.90;;;;;;5040069;28;20048;-81
2022/09/27 11:39:24;;;;;;;3.00;0.60;;;;;;;;;;5057466;28;20055;-80
2022/09/27 11:42:26;;;;;;;2.92;0.80;;;11.80;99.90;;;;;;5040252;28;20044;-83
2022/09/27 11:45:01;;;;;;;0.85;0.63;;;11.70;99.90;;;;;;5058128;28;20515;-81
2022/09/27 11:47:41;;;;;;;3.35;0.90;;;;;;;;;;5058165;28;20071;-82
2022/09/27 11:50:31;;;;;;;4.03;0.88;;;;;;;;;;5057440;28;20076;-82
2022/09/27 11:53:00;;;;;;;3.53;0.70;;;;;;;;;;5042554;28;20056;-82
2022/09/27 11:55:38;;;;;;;2.20;0.68;;;11.90;99.90;;;;;;5058777;28;20037;-81
2022/09/27 11:58:24;;;;;;;14.20;2.38;;;11.70;99.90;;;;;;5040095;28;20083;-82
2022/09/27 12:01:07;;;;;;;1.13;0.73;;;11.80;99.90;;;;;;5039478;28;20139;-82
2022/09/27 12:03:51;;;;;;;2.08;0.65;;;;;;;;;;5041752;28;20132;-86
2022/09/27 12:06:46;;;;;;;0.55;0.55;;;12.10;99.90;;;;;;5041509;28;20036;-93
2022/09/27 12:09:18;;;;;;;1.02;0.90;;;12.10;99.90;;;;;;5057595;28;20071;-92
2022/09/27 12:12:01;;;;;;;1.08;0.80;;;12.30;99.90;;;;;;5056913;28;20072;-94
2022/09/27 12:14:36;;;;;;;2.83;1.20;;;;;;;;;;5056505;28;20121;-91
2022/09/27 12:17:19;;;;;;;0.57;0.57;;;12.40;99.90;;;;;;5040058;28;20048;-86
2022/09/27 12:19:50;;;;;;;1.75;0.50;;;12.20;99.90;;;;;;5056362;28;20040;-92
2022/09/27 12:22:21;;;;;;;0.63;0.52;;;12.30;99.90;;;;;;5039925;28;20088;-93
2022/09/27 12:24:47;;;;;;;3.30;0.60;;;;;;;;;;5056462;28;20041;-92
2022/09/27 12:27:20;;;;;;;1.63;0.70;;;12.30;99.90;;;;;;5039908;28;20047;-91
2022/09/27 12:29:48;;;;;;;1.42;0.63;;;12.40;99.90;;;;;;5056107;28;20049;-92
2022/09/27 12:32:21;;;;;;;0.55;0.55;;;;;;;;;;5056020;28;20051;-92
2022/09/27 12:34:59;;;;;;;1.23;0.87;;;12.30;99.90;;;;;;5055587;28;20124;-92
2022/09/27 12:37:32;;;;;;;0.40;0.40;;;;;;;;;;5055353;28;20310;-92
2022/09/27 12:40:05;;;;;;;1.13;0.75;;;;;;;;;;5055849;28;20055;-89
2022/09/27 12:42:47;;;;;;;0.50;0.50;;;12.30;99.90;;;;;;5039406;28;20059;-91
2022/09/27 12:45:14;;;;;;;2.33;0.50;;;;;;;;;;5038947;28;20489;-90
2022/09/27 12:47:53;;;;;;;1.10;0.68;;;;;;;;;;5039067;28;20098;-91
2022/09/27 12:50:36;;;;;;;0.90;0.60;;;12.10;99.90;;;;;;5055961;28;20044;-93
2022/09/27 12:53:22;;;;;;;0.98;0.75;;;;;;;;;;5055566;28;20063;-80
2022/09/27 12:56:04;;;;;;;0.50;0.50;;;12.10;99.90;;;;;;5039177;28;20135;-90
2022/09/27 12:58:44;;;;;;;1.67;0.70;;;12.10;99.90;;;;;;5072578;28;20055;-92
2022/09/27 13:01:13;;;;;;;0.70;0.70;;;;;;;;;;5072854;28;20040;-82
2022/09/27 13:03:46;;;;;;;0.77;0.77;;;;;;;;;;5038182;28;20086;-83
2022/09/27 13:06:32;;;;;;;4.13;0.80;;;;;;;;;;5038243;28;20610;-83
2022/09/27 13:09:15;;;;;;;2.92;0.70;;;;;;;;;;5072623;28;20059;-83
2022/09/27 13:11:49;;;;;;;1.20;0.60;;;;;;;;;;5054549;28;20531;-83
2022/09/27 13:14:22;;;;;;;1.60;0.70;;;11.60;99.90;;;;;;5037957;28;20742;-83
2022/09/27 13:16:50;;;;;;;1.03;0.80;;;;;;;;;;5054246;28;20052;-84
2022/09/27 13:19:38;;;;;;;1.13;0.70;;;11.40;99.90;;;;;;5037711;28;20295;-83
2022/09/27 13:22:10;;;;;;;1.60;0.63;;;11.40;99.90;;;;;;5054283;28;20123;-83
2022/09/27 13:24:39;;;;;;;2.80;0.90;;;11.30;99.90;;;;;;5036701;28;20048;-82
2022/09/27 13:27:26;;;;;;;1.13;0.70;;;11.50;99.90;;;;;;5054611;28;20044;-82
2022/09/27 13:30:15;;;;;;;3.22;0.82;;;11.40;99.90;;;;;;5053923;28;20055;-81
2022/09/27 13:33:24;;;;;;;1.80;0.55;;;11.40;99.90;;;;;;4958486;28;20090;-82
2022/09/27 13:36:31;;;;;;;1.10;0.50;;;11.20;99.90;;;;;;4950510;28;20054;-82
2022/09/27 13:39:16;;;;;;;1.08;0.80;;;11.60;99.90;;;;;;4917020;29;20154;-82
2022/09/27 13:41:45;;;;;;;1.13;0.57;;;;;;;;;;4929718;29;20540;-82
2022/09/27 13:44:12;;;;;;;2.05;0.70;;;;;;;;;;4935424;29;20142;-81
2022/09/27 13:46:50;;;;;;;0.73;0.57;;;11.70;99.90;;;;;;4935555;29;20050;-81
2022/09/27 13:49:17;;;;;;;0.73;0.70;;;;;;;;;;4935663;28;20047;-81
2022/09/27 13:51:50;;;;;;;1.90;0.52;;;11.60;99.90;;;;;;4951516;29;20043;-82
2022/09/27 13:54:33;;;;;;;1.95;0.90;;;11.60;99.90;;;;;;4935571;29;20055;-84
2022/09/27 13:57:01;;;;;;;4.67;0.83;;;11.50;99.90;;;;;;4935214;29;20051;-84
2022/09/27 13:59:48;;;;;;;0.82;0.80;;;11.50;99.90;;;;;;4935364;29;20299;-83
2022/09/27 14:02:21;;;;;;;0.90;0.47;;;;;;;;;;4919810;28;20035;-83
2022/09/27 14:04:50;;;;;;;4.18;0.80;;;11.30;99.90;;;;;;4951340;29;20043;-85
2022/09/27 14:07:21;;;;;;;2.10;0.70;;;11.30;99.90;;;;;;4935467;29;20062;-84
2022/09/27 14:09:54;;;;;;;1.75;0.60;;;11.10;99.90;;;;;;4960267;28;20127;-95
2022/09/27 14:12:27;;;;;;;3.53;0.57;;;11.10;99.90;;;;;;5015156;28;20453;-94
2022/09/27 14:14:55;;;;;;;0.63;0.63;;;11.20;99.90;;;;;;5056047;28;20044;-92
2022/09/27 14:17:21;;;;;;;1.15;0.68;;;;;;;;;;5061785;28;20051;-95
2022/09/27 14:19:49;;;;;;;1.15;0.60;;;;;;;;;;5049095;28;20047;-87
2022/09/27 14:22:17;;;;;;;1.38;0.60;;;;;;;;;;5068543;28;20083;-85
2022/09/27 14:24:46;;;;;;;6.43;0.70;;;11.00;99.90;;;;;;5071944;28;20044;-86
2022/09/27 14:27:16;;;;;;;0.70;0.70;;;;;;;;;;5055537;28;20036;-89
2022/09/27 14:29:52;;;;;;;6.57;1.02;;;;;;;;;;5074116;28;20040;-84
2022/09/27 14:32:19;;;;;;;1.48;0.80;;;;;;;;;;5059729;28;20433;-86
2022/09/27 14:34:46;;;;;;;1.15;0.70;;;;;;;;;;5070526;28;20059;-90